Time;durP1;ratioP1;P1;durP2;ratioP2;P2;SDS_P1;SDS_P2;PMS_P1;PMS_P2;Temp;Humidity;BMP_temperature;BMP_pressure;BME280_temperature;BME280_humidity;BME280_pressure;Samples;Min_cycle;Max_cycle;Signal;HPM_P1;HPM_P2
2022/06/04 00:01:51;;;;;;;;;;;;;;;;;;5117405;27;28381;-84
2022/06/04 00:04:16;;;;;;;;;;;;;;;;;;5117927;27;28417;-83
2022/06/04 00:06:42;;;;;;;;;;;;;;;;;;5117938;27;28608;-83
2022/06/04 00:09:08;;;;;;;;;;;;;;;;;;5117510;27;28520;-84
2022/06/04 00:17:01;;;;;;;;;;;;;;;;;;5117756;27;28565;-84
2022/06/04 00:19:26;;;;;;;;;;;;;;;;;;5117386;27;29612;-83
2022/06/04 00:21:51;;;;;;;;;;;;;;;;;;5117761;27;28421;-83
2022/06/04 00:24:16;;;;;;;;;;;;;;;;;;5117659;27;28377;-84
2022/06/04 00:26:42;;;;;;;;;;;;;;;;;;5117828;27;28373;-83
2022/06/04 00:29:09;;;;;;;;;;;;;;;;;;5117281;27;28538;-83
2022/06/04 00:31:36;;;;;;;;;;;;;;;;;;5117335;27;28338;-83
2022/06/04 00:34:01;;;;;;;;;;;;;;;;;;5117222;27;28388;-84
2022/06/04 00:36:26;;;;;;;;;;;;;;;;;;5117473;27;28391;-83
2022/06/04 00:38:52;;;;;;;;;;;;;;;;;;5117487;27;29696;-83
2022/06/04 00:41:17;;;;;;;;;;;;;;;;;;5117299;27;28118;-83
2022/06/04 00:43:42;;;;;;;;;;;;;;;;;;5117345;27;28297;-84
2022/06/04 00:46:07;;;;;;;;;;;;;;;;;;5117545;27;28298;-82
2022/06/04 00:48:34;;;;;;;;;;;;;;;;;;5117147;27;28525;-83
2022/06/04 00:51:00;;;;;;;;;;;;;;;;;;5116969;27;28533;-83
2022/06/04 00:53:25;;;;;;;;;;;;;;;;;;5117058;27;28409;-84
2022/06/04 00:55:50;;;;;;;;;;;;;;;;;;5116985;27;28342;-82
2022/06/04 00:58:15;;;;;;;;;;;;;;;;;;5117033;27;29355;-84
2022/06/04 01:00:40;;;;;;;;;;;;;;;;;;5116896;27;28371;-82
2022/06/04 01:03:05;;;;;;;;;;;;;;;;;;5117008;27;28355;-84
2022/06/04 01:05:30;;;;;;;;;;;;;;;;;;5117381;27;28426;-83
2022/06/04 01:07:55;;;;;;;;;;;;;;;;;;5116615;27;28472;-83
2022/06/04 01:10:20;;;;;;;;;;;;;;;;;;5116758;27;28355;-83
2022/06/04 01:12:46;;;;;;;;;;;;;;;;;;5116748;27;28363;-83
2022/06/04 01:15:11;;;;;;;;;;;;;;;;;;5116761;27;28969;-82
2022/06/04 01:17:36;;;;;;;;;;;;;;;;;;5116921;27;28401;-82
2022/06/04 01:20:02;;;;;;;;;;;;;;;;;;5116508;27;28542;-83
2022/06/04 01:22:27;;;;;;;;;;;;;;;;;;5116787;27;28386;-83
2022/06/04 01:24:52;;;;;;;;;;;;;;;;;;5116811;27;28342;-83
2022/06/04 01:27:17;;;;;;;;;;;;;;;;;;5116206;27;33595;-83
2022/06/04 01:29:42;;;;;;;;;;;;;;;;;;5116694;27;28388;-82
2022/06/04 01:32:07;;;;;;;;;;;;;;;;;;5098133;27;28403;-83
2022/06/04 01:34:33;;;;;;;;;;;;;;;;;;5116443;27;28448;-83
2022/06/04 01:36:58;;;;;;;;;;;;;;;;;;5116470;27;28540;-83
2022/06/04 01:39:23;;;;;;;;;;;;;;;;;;5115968;27;28446;-83
2022/06/04 01:41:48;;;;;;;;;;;;;;;;;;5115893;27;28576;-83
2022/06/04 01:44:13;;;;;;;;;;;;;;;;;;5116520;27;28315;-82
2022/06/04 01:46:38;;;;;;;;;;;;;;;;;;5116628;27;28374;-83
2022/06/04 01:49:03;;;;;;;;;;;;;;;;;;5115902;27;28473;-83
2022/06/04 01:51:28;;;;;;;;;;;;;;;;;;5116435;27;28457;-83
2022/06/04 01:53:54;;;;;;;;;;;;;;;;;;5115936;27;35679;-83
2022/06/04 01:56:19;;;;;;;;;;;;;;;;;;5097672;27;29649;-83
2022/06/04 01:58:44;;;;;;;;;;;;;;;;;;5116371;27;28374;-83
2022/06/04 02:01:09;;;;;;;;;;;;;;;;;;5116259;27;28343;-82
2022/06/04 02:03:34;;;;;;;;;;;;;;;;;;5116034;27;27860;-82
2022/06/04 02:05:59;;;;;;;;;;;;;;;;;;5115989;27;28692;-82
2022/06/04 02:08:25;;;;;;;;;;;;;;;;;;5116080;27;27728;-82
2022/06/04 02:10:50;;;;;;;;;;;;;;;;;;5115914;27;28504;-82
2022/06/04 02:13:15;;;;;;;;;;;;;;;;;;5116160;27;28432;-82
2022/06/04 02:15:40;;;;;;;;;;;;;;;;;;5116091;27;29833;-82
2022/06/04 02:18:05;;;;;;;;;;;;;;;;;;5115672;27;28122;-82
2022/06/04 02:20:30;;;;;;;;;;;;;;;;;;5116044;27;28482;-82
2022/06/04 02:22:55;;;;;;;;;;;;;;;;;;5116331;27;28271;-83
2022/06/04 02:25:22;;;;;;;;;;;;;;;;;;5115668;27;28468;-83
2022/06/04 02:27:48;;;;;;;;;;;;;;;;;;5115926;27;28290;-83
2022/06/04 02:30:13;;;;;;;;;;;;;;;;;;5115862;27;28315;-82
2022/06/04 02:32:38;;;;;;;;;;;;;;;;;;5115461;27;28554;-83
2022/06/04 02:35:03;;;;;;;;;;;;;;;;;;5115662;27;28377;-83
2022/06/04 02:37:28;;;;;;;;;;;;;;;;;;5115695;27;28410;-83
2022/06/04 02:39:53;;;;;;;;;;;;;;;;;;5115883;27;28389;-83
2022/06/04 02:42:18;;;;;;;;;;;;;;;;;;5115847;27;28432;-83
2022/06/04 02:44:44;;;;;;;;;;;;;;;;;;5115506;27;29705;-82
2022/06/04 02:47:09;;;;;;;;;;;;;;;;;;5115270;27;28375;-83
2022/06/04 02:49:36;;;;;;;;;;;;;;;;;;5115674;27;28271;-83
2022/06/04 02:52:03;;;;;;;;;;;;;;;;;;5116142;27;28486;-82
2022/06/04 02:54:28;;;;;;;;;;;;;;;;;;5118709;27;28462;-82
2022/06/04 02:56:53;;;;;;;;;;;;;;;;;;5119192;27;28365;-82
2022/06/04 02:59:18;;;;;;;;;;;;;;;;;;5118789;27;28450;-82
2022/06/04 03:01:43;;;;;;;;;;;;;;;;;;5118675;27;28595;-82
2022/06/04 03:04:08;;;;;;;;;;;;;;;;;;5119094;27;28410;-83
2022/06/04 03:06:34;;;;;;;;;;;;;;;;;;5118659;27;28438;-81
2022/06/04 03:08:59;;;;;;;;;;;;;;;;;;5119308;27;28393;-82
2022/06/04 03:11:24;;;;;;;;;;;;;;;;;;5119046;27;28504;-81
2022/06/04 03:13:49;;;;;;;;;;;;;;;;;;5118587;27;29462;-83
2022/06/04 03:16:14;;;;;;;;;;;;;;;;;;5118682;27;28319;-83
2022/06/04 03:18:39;;;;;;;;;;;;;;;;;;5118648;27;28314;-82
2022/06/04 03:21:04;;;;;;;;;;;;;;;;;;5118904;27;28313;-82
2022/06/04 03:23:30;;;;;;;;;;;;;;;;;;5118435;27;29090;-82
2022/06/04 03:25:55;;;;;;;;;;;;;;;;;;5118133;27;28379;-83
2022/06/04 03:28:20;;;;;;;;;;;;;;;;;;5118804;27;28393;-83
2022/06/04 03:30:45;;;;;;;;;;;;;;;;;;5118424;27;28607;-83
2022/06/04 03:33:10;;;;;;;;;;;;;;;;;;5118640;27;29591;-83
2022/06/04 03:35:35;;;;;;;;;;;;;;;;;;5118295;27;28315;-83
2022/06/04 03:38:00;;;;;;;;;;;;;;;;;;5118583;27;28504;-83
2022/06/04 03:40:25;;;;;;;;;;;;;;;;;;5134176;27;28412;-82
2022/06/04 03:42:50;;;;;;;;;;;;;;;;;;5118099;27;28573;-83
2022/06/04 03:45:16;;;;;;;;;;;;;;;;;;5117999;27;28324;-83
2022/06/04 03:47:41;;;;;;;;;;;;;;;;;;5118283;27;28284;-82
2022/06/04 03:50:08;;;;;;;;;;;;;;;;;;5118611;27;28406;-82
2022/06/04 03:52:33;;;;;;;;;;;;;;;;;;5118058;27;29636;-82
2022/06/04 03:55:01;;;;;;;;;;;;;;;;;;5117998;27;28316;-82
2022/06/04 03:57:38;;;;;;;;;;;;;;;;;;5118318;27;28377;-81
2022/06/04 04:00:03;;;;;;;;;;;;;;;;;;5117995;27;27907;-83
2022/06/04 04:02:28;;;;;;;;;;;;;;;;;;5117758;27;28502;-82
2022/06/04 04:04:54;;;;;;;;;;;;;;;;;;5118120;27;28383;-82
2022/06/04 04:07:19;;;;;;;;;;;;;;;;;;5118020;27;28434;-82
2022/06/04 04:09:44;;;;;;;;;;;;;;;;;;5118103;27;28323;-82
2022/06/04 04:12:09;;;;;;;;;;;;;;;;;;5117806;27;28602;-82
2022/06/04 04:14:34;;;;;;;;;;;;;;;;;;5117325;27;29360;-82
2022/06/04 04:16:59;;;;;;;;;;;;;;;;;;5117956;27;28515;-83
2022/06/04 04:19:28;;;;;;;;;;;;;;;;;;5117746;27;28447;-82
2022/06/04 04:21:53;;;;;;;;;;;;;;;;;;5117458;27;29483;-82
2022/06/04 04:24:18;;;;;;;;;;;;;;;;;;5117856;27;27830;-82
2022/06/04 04:26:43;;;;;;;;;;;;;;;;;;5117825;27;27764;-82
2022/06/04 04:29:09;;;;;;;;;;;;;;;;;;5117806;27;27844;-82
2022/06/04 04:31:34;;;;;;;;;;;;;;;;;;5098940;27;28410;-82
2022/06/04 04:33:59;;;;;;;;;;;;;;;;;;5117572;27;28463;-82
2022/06/04 04:36:27;;;;;;;;;;;;;;;;;;5117371;27;28372;-82
2022/06/04 04:38:53;;;;;;;;;;;;;;;;;;5117465;27;28511;-82
2022/06/04 04:41:18;;;;;;;;;;;;;;;;;;5117482;27;29300;-82
2022/06/04 04:43:43;;;;;;;;;;;;;;;;;;5116883;27;28467;-82
2022/06/04 04:46:08;;;;;;;;;;;;;;;;;;5117335;27;28347;-82
2022/06/04 04:48:33;;;;;;;;;;;;;;;;;;5117345;27;28397;-82
2022/06/04 04:50:58;;;;;;;;;;;;;;;;;;5116997;27;29614;-82
2022/06/04 04:53:23;;;;;;;;;;;;;;;;;;5117018;27;28462;-82
2022/06/04 04:55:49;;;;;;;;;;;;;;;;;;5117134;27;28560;-82
2022/06/04 04:58:14;;;;;;;;;;;;;;;;;;5117457;27;28374;-82
2022/06/04 05:00:39;;;;;;;;;;;;;;;;;;5116471;27;28501;-82
2022/06/04 05:03:04;;;;;;;;;;;;;;;;;;5117125;27;28397;-81
2022/06/04 05:05:29;;;;;;;;;;;;;;;;;;5117072;27;28402;-82
2022/06/04 05:07:54;;;;;;;;;;;;;;;;;;5116370;27;28659;-81
2022/06/04 05:10:19;;;;;;;;;;;;;;;;;;5116917;27;29312;-82
2022/06/04 05:12:44;;;;;;;;;;;;;;;;;;5117039;27;28298;-81
2022/06/04 05:15:10;;;;;;;;;;;;;;;;;;5115758;27;28303;-81
2022/06/04 05:17:35;;;;;;;;;;;;;;;;;;5116960;27;28260;-81
2022/06/04 05:20:00;;;;;;;;;;;;;;;;;;5116531;27;28593;-82
2022/06/04 05:22:25;;;;;;;;;;;;;;;;;;5116628;27;28343;-82
2022/06/04 05:24:50;;;;;;;;;;;;;;;;;;5116867;27;28335;-81
2022/06/04 05:27:15;;;;;;;;;;;;;;;;;;5116481;27;28306;-81
2022/06/04 05:29:41;;;;;;;;;;;;;;;;;;5116626;27;28749;-81
2022/06/04 05:32:06;;;;;;;;;;;;;;;;;;5115889;27;28320;-81
2022/06/04 05:34:31;;;;;;;;;;;;;;;;;;5116472;27;28446;-82
2022/06/04 05:36:56;;;;;;;;;;;;;;;;;;5116498;27;28605;-82
2022/06/04 05:39:21;;;;;;;;;;;;;;;;;;5116553;27;29452;-81
2022/06/04 05:41:47;;;;;;;;;;;;;;;;;;5116459;27;28248;-82
2022/06/04 05:44:12;;;;;;;;;;;;;;;;;;5116287;27;28323;-82
2022/06/04 05:46:37;;;;;;;;;;;;;;;;;;5115375;27;28461;-82
2022/06/04 05:49:02;;;;;;;;;;;;;;;;;;5116402;27;29206;-82
2022/06/04 05:51:27;;;;;;;;;;;;;;;;;;5116495;27;28263;-82
2022/06/04 05:53:53;;;;;;;;;;;;;;;;;;5115817;27;27755;-81
2022/06/04 05:56:21;;;;;;;;;;;;;;;;;;5115694;27;28508;-82
2022/06/04 05:58:46;;;;;;;;;;;;;;;;;;5115893;27;28770;-81
2022/06/04 06:01:12;;;;;;;;;;;;;;;;;;5115166;27;28554;-81
2022/06/04 06:03:37;;;;;;;;;;;;;;;;;;5116461;27;28315;-81
2022/06/04 06:06:02;;;;;;;;;;;;;;;;;;5116255;27;28299;-81
2022/06/04 06:08:27;;;;;;;;;;;;;;;;;;5116102;27;28416;-82
2022/06/04 06:10:52;;;;;;;;;;;;;;;;;;5115997;27;28385;-81
2022/06/04 06:13:17;;;;;;;;;;;;;;;;;;5116272;27;28492;-81
2022/06/04 06:15:42;;;;;;;;;;;;;;;;;;5115727;27;28509;-81
2022/06/04 06:18:08;;;;;;;;;;;;;;;;;;5115875;27;28463;-81
2022/06/04 06:20:33;;;;;;;;;;;;;;;;;;5115429;27;28377;-81
2022/06/04 06:22:58;;;;;;;;;;;;;;;;;;5116097;27;28339;-81
2022/06/04 06:25:23;;;;;;;;;;;;;;;;;;5115780;27;28374;-81
2022/06/04 06:27:48;;;;;;;;;;;;;;;;;;5119508;27;28543;-80
2022/06/04 06:30:13;;;;;;;;;;;;;;;;;;5113108;27;28426;-81
2022/06/04 06:32:40;;;;;;;;;;;;;;;;;;5117851;27;28459;-81
2022/06/04 06:35:05;;;;;;;;;;;;;;;;;;5126988;27;28466;-81
2022/06/04 06:37:30;;;;;;;;;;;;;;;;;;5138911;27;28339;-82
2022/06/04 06:39:56;;;;;;;;;;;;;;;;;;5124015;27;27839;-80
2022/06/04 06:42:22;;;;;;;;;;;;;;;;;;5123119;27;28539;-81
2022/06/04 06:44:47;;;;;;;;;;;;;;;;;;5117944;27;28429;-80
2022/06/04 06:47:12;;;;;;;;;;;;;;;;;;5123810;27;28481;-81
2022/06/04 06:49:37;;;;;;;;;;;;;;;;;;5138559;27;28398;-81
2022/06/04 06:52:02;;;;;;;;;;;;;;;;;;5138138;27;28526;-81
2022/06/04 06:54:27;;;;;;;;;;;;;;;;;;5137688;27;28520;-81
2022/06/04 06:56:52;;;;;;;;;;;;;;;;;;5127321;27;29252;-81
2022/06/04 06:59:20;;;;;;;;;;;;;;;;;;5118859;27;28476;-81
2022/06/04 07:01:45;;;;;;;;;;;;;;;;;;5118304;27;28510;-81
2022/06/04 07:04:11;;;;;;;;;;;;;;;;;;5119290;27;28643;-81
2022/06/04 07:06:36;;;;;;;;;;;;;;;;;;5118068;27;28244;-81
2022/06/04 07:09:01;;;;;;;;;;;;;;;;;;5118527;27;28451;-78
2022/06/04 07:11:26;;;;;;;;;;;;;;;;;;5118944;27;28400;-80
2022/06/04 07:13:51;;;;;;;;;;;;;;;;;;5118632;27;28346;-81
2022/06/04 07:16:17;;;;;;;;;;;;;;;;;;5113143;27;29342;-81
2022/06/04 07:18:42;;;;;;;;;;;;;;;;;;5114483;27;28613;-80
2022/06/04 07:21:07;;;;;;;;;;;;;;;;;;5117581;27;28414;-80
2022/06/04 07:23:34;;;;;;;;;;;;;;;;;;5117429;27;28367;-79
2022/06/04 07:26:00;;;;;;;;;;;;;;;;;;5116929;27;28402;-79
2022/06/04 07:28:25;;;;;;;;;;;;;;;;;;5119046;27;28349;-80
2022/06/04 07:30:50;;;;;;;;;;;;;;;;;;5118012;27;28401;-80
2022/06/04 07:33:15;;;;;;;;;;;;;;;;;;5117875;27;28400;-80
2022/06/04 07:35:40;;;;;;;;;;;;;;;;;;5116914;27;28495;-80
2022/06/04 07:38:05;;;;;;;;;;;;;;;;;;5118473;27;28414;-82
2022/06/04 07:40:30;;;;;;;;;;;;;;;;;;5118674;27;28279;-81
2022/06/04 07:42:55;;;;;;;;;;;;;;;;;;5117578;27;28473;-81
2022/06/04 07:45:20;;;;;;;;;;;;;;;;;;5116837;27;29359;-82
2022/06/04 07:47:46;;;;;;;;;;;;;;;;;;5116578;27;28576;-81
2022/06/04 07:50:11;;;;;;;;;;;;;;;;;;5117046;27;28417;-82
2022/06/04 07:52:37;;;;;;;;;;;;;;;;;;5116059;27;28400;-81
2022/06/04 07:55:03;;;;;;;;;;;;;;;;;;5115941;27;28457;-81
2022/06/04 07:57:28;;;;;;;;;;;;;;;;;;5115875;27;28874;-81
2022/06/04 07:59:53;;;;;;;;;;;;;;;;;;5116173;27;28454;-82
2022/06/04 08:02:21;;;;;;;;;;;;;;;;;;5116529;27;28509;-81
2022/06/04 08:04:46;;;;;;;;;;;;;;;;;;5116464;27;29636;-82
2022/06/04 08:07:12;;;;;;;;;;;;;;;;;;5116341;27;28477;-82
2022/06/04 08:09:37;;;;;;;;;;;;;;;;;;5116099;27;28452;-82
2022/06/04 08:12:02;;;;;;;;;;;;;;;;;;5115788;27;28475;-81
2022/06/04 08:14:27;;;;;;;;;;;;;;;;;;5114862;27;28554;-82
2022/06/04 08:16:52;;;;;;;;;;;;;;;;;;5113352;27;28585;-85
2022/06/04 08:19:17;;;;;;;;;;;;;;;;;;5113217;27;28457;-86
2022/06/04 08:21:43;;;;;;;;;;;;;;;;;;5113763;27;28507;-84
2022/06/04 08:24:08;;;;;;;;;;;;;;;;;;5113672;27;28531;-83
2022/06/04 08:26:33;;;;;;;;;;;;;;;;;;5115216;27;28486;-83
2022/06/04 08:28:58;;;;;;;;;;;;;;;;;;5097496;27;28512;-90
2022/06/04 08:31:23;;;;;;;;;;;;;;;;;;5097526;27;28707;-90
2022/06/04 08:33:49;;;;;;;;;;;;;;;;;;5115435;27;28566;-85
2022/06/04 08:36:14;;;;;;;;;;;;;;;;;;5115518;27;28503;-88
2022/06/04 08:38:39;;;;;;;;;;;;;;;;;;5115722;27;28443;-87
2022/06/04 08:41:04;;;;;;;;;;;;;;;;;;5115175;27;28401;-85
2022/06/04 08:43:29;;;;;;;;;;;;;;;;;;5115163;27;29487;-87
2022/06/04 08:45:54;;;;;;;;;;;;;;;;;;5115401;27;28406;-90
2022/06/04 08:48:19;;;;;;;;;;;;;;;;;;5116463;27;28394;-86
2022/06/04 08:50:44;;;;;;;;;;;;;;;;;;5115656;27;28397;-88
2022/06/04 08:53:09;;;;;;;;;;;;;;;;;;5114926;27;28480;-89
2022/06/04 08:58:18;;;;;;;;;;;;;;;;;;5115181;27;28535;-87
2022/06/04 09:00:43;;;;;;;;;;;;;;;;;;5114432;27;28492;-85
2022/06/04 09:03:08;;;;;;;;;;;;;;;;;;5115227;27;28508;-88
2022/06/04 09:05:34;;;;;;;;;;;;;;;;;;5114891;27;28446;-82
2022/06/04 09:08:00;;;;;;;;;;;;;;;;;;5114862;27;28434;-86
2022/06/04 09:10:26;;;;;;;;;;;;;;;;;;5097107;27;28398;-86
2022/06/04 09:12:51;;;;;;;;;;;;;;;;;;5114438;27;29033;-90
2022/06/04 09:15:16;;;;;;;;;;;;;;;;;;5094892;27;28371;-87
2022/06/04 09:17:41;;;;;;;;;;;;;;;;;;5116737;27;28228;-85
2022/06/04 09:20:06;;;;;;;;;;;;;;;;;;5115461;27;27806;-84
2022/06/04 09:22:31;;;;;;;;;;;;;;;;;;5114691;27;28578;-87
2022/06/04 09:24:56;;;;;;;;;;;;;;;;;;5114786;27;28380;-88
2022/06/04 09:27:21;;;;;;;;;;;;;;;;;;5117868;27;28430;-82
2022/06/04 09:29:47;;;;;;;;;;;;;;;;;;5119789;27;28810;-83
2022/06/04 09:32:12;;;;;;;;;;;;;;;;;;5116928;27;29217;-86
2022/06/04 09:34:37;;;;;;;;;;;;;;;;;;5114458;27;28641;-83
2022/06/04 09:37:02;;;;;;;;;;;;;;;;;;5094429;27;28390;-82
2022/06/04 09:39:27;;;;;;;;;;;;;;;;;;5094970;28;28403;-80
2022/06/04 09:41:52;;;;;;;;;;;;;;;;;;5106492;27;28465;-81
2022/06/04 09:44:18;;;;;;;;;;;;;;;;;;5115323;27;28414;-82
2022/06/04 09:46:43;;;;;;;;;;;;;;;;;;5115769;27;28461;-82
2022/06/04 09:49:08;;;;;;;;;;;;;;;;;;5113260;27;28303;-83
2022/06/04 09:51:34;;;;;;;;;;;;;;;;;;5120245;27;28443;-83
2022/06/04 09:53:59;;;;;;;;;;;;;;;;;;5135391;27;28296;-83
2022/06/04 09:56:26;;;;;;;;;;;;;;;;;;5122262;27;28490;-83
2022/06/04 09:58:51;;;;;;;;;;;;;;;;;;5115674;27;28501;-85
2022/06/04 10:01:16;;;;;;;;;;;;;;;;;;5111995;27;28478;-83
2022/06/04 10:03:41;;;;;;;;;;;;;;;;;;5115266;27;28470;-82
2022/06/04 10:06:06;;;;;;;;;;;;;;;;;;5115363;27;28638;-82
2022/06/04 10:09:54;;;;;;;;;;;;;;;;;;5128795;27;28469;-83
2022/06/04 10:11:16;;;;;;;;;;;;;;;;;;5117737;27;28601;-81
2022/06/04 10:13:45;;;;;;;;;;;;;;;;;;5115074;27;28542;-84
2022/06/04 10:16:10;;;;;;;;;;;;;;;;;;5115241;27;28486;-82
2022/06/04 10:18:36;;;;;;;;;;;;;;;;;;5107412;27;28497;-80
2022/06/04 10:21:01;;;;;;;;;;;;;;;;;;5094477;28;28567;-82
2022/06/04 10:23:26;;;;;;;;;;;;;;;;;;5095581;27;28454;-82
2022/06/04 10:25:51;;;;;;;;;;;;;;;;;;5121867;27;27857;-82
2022/06/04 10:28:17;;;;;;;;;;;;;;;;;;5136141;27;28452;-86
2022/06/04 10:30:42;;;;;;;;;;;;;;;;;;5121131;27;29339;-88
2022/06/04 10:33:07;;;;;;;;;;;;;;;;;;5114720;27;28464;-87
2022/06/04 10:35:32;;;;;;;;;;;;;;;;;;5114820;27;28652;-86
2022/06/04 10:37:58;;;;;;;;;;;;;;;;;;5114832;27;28575;-83
2022/06/04 10:40:23;;;;;;;;;;;;;;;;;;5114932;27;28494;-84
2022/06/04 10:42:48;;;;;;;;;;;;;;;;;;5118530;27;28840;-85
2022/06/04 10:45:13;;;;;;;;;;;;;;;;;;5113484;27;28481;-87
2022/06/04 10:47:38;;;;;;;;;;;;;;;;;;5114675;27;28379;-84
2022/06/04 10:50:03;;;;;;;;;;;;;;;;;;5115011;27;28463;-83
2022/06/04 10:52:28;;;;;;;;;;;;;;;;;;5114853;27;28390;-90
2022/06/04 10:54:53;;;;;;;;;;;;;;;;;;5114853;27;28470;-88
2022/06/04 10:57:19;;;;;;;;;;;;;;;;;;5110538;27;28453;-86
2022/06/04 10:59:44;;;;;;;;;;;;;;;;;;5103615;27;28543;-88
2022/06/04 11:02:09;;;;;;;;;;;;;;;;;;5112867;27;28477;-91
2022/06/04 11:04:34;;;;;;;;;;;;;;;;;;5113111;27;28450;-88
2022/06/04 11:06:59;;;;;;;;;;;;;;;;;;5116811;27;28709;-90
2022/06/04 11:09:24;;;;;;;;;;;;;;;;;;5113443;27;28593;-92
2022/06/04 11:11:49;;;;;;;;;;;;;;;;;;5116340;27;28541;-92
2022/06/04 11:14:14;;;;;;;;;;;;;;;;;;5096988;28;28481;-92
2022/06/04 11:16:41;;;;;;;;;;;;;;;;;;5098904;27;28393;-95
2022/06/04 11:19:06;;;;;;;;;;;;;;;;;;5135415;27;29922;-90
2022/06/04 11:21:31;;;;;;;;;;;;;;;;;;5134852;27;28564;-93
2022/06/04 11:23:56;;;;;;;;;;;;;;;;;;5119136;27;27767;-93
2022/06/04 11:26:22;;;;;;;;;;;;;;;;;;5120296;27;28413;-94
2022/06/04 11:28:47;;;;;;;;;;;;;;;;;;5139335;27;30961;-96
2022/06/04 11:31:12;;;;;;;;;;;;;;;;;;5117519;27;28577;-92
2022/06/04 11:33:40;;;;;;;;;;;;;;;;;;5113986;27;28520;-94
2022/06/04 11:36:05;;;;;;;;;;;;;;;;;;5132123;27;27819;-92
2022/06/04 11:38:30;;;;;;;;;;;;;;;;;;5106518;27;28449;-94
2022/06/04 11:40:55;;;;;;;;;;;;;;;;;;5117523;27;28342;-89
2022/06/04 11:43:20;;;;;;;;;;;;;;;;;;5117900;27;28401;-96
2022/06/04 11:45:55;;;;;;;;;;;;;;;;;;5100466;28;28215;-94
2022/06/04 11:53:30;;;;;;;;;;;;;;;;;;5624570;22;29405;-95
2022/06/04 11:56:01;;;;;;;;;;;;;;;;;;5684810;22;29499;-96
2022/06/04 12:57:58;;;;;;;;;;;;;;;;;;5488126;22;29733;-96
2022/06/04 13:00:23;;;;;;;;;;;;;;;;;;5777985;22;28995;-96
2022/06/04 13:02:49;;;;;;;;;;;;;;;;;;5099338;27;28469;-96
2022/06/04 13:05:14;;;;;;;;;;;;;;;;;;5123302;27;27801;-96
2022/06/04 13:07:39;;;;;;;;;;;;;;;;;;5118057;27;27967;-96
2022/06/04 13:10:04;;;;;;;;;;;;;;;;;;5115163;28;28735;-96
2022/06/04 13:12:29;;;;;;;;;;;;;;;;;;5088966;28;28383;-96
2022/06/04 13:14:56;;;;;;;;;;;;;;;;;;5077721;28;28441;-96
2022/06/04 13:17:22;;;;;;;;;;;;;;;;;;5098468;28;27849;-96
2022/06/04 13:19:47;;;;;;;;;;;;;;;;;;5100219;28;28613;-96
2022/06/04 13:22:12;;;;;;;;;;;;;;;;;;5098627;28;28468;-96
2022/06/04 13:24:37;;;;;;;;;;;;;;;;;;5095208;28;27809;-96
2022/06/04 13:27:02;;;;;;;;;;;;;;;;;;5096484;28;27929;-96
2022/06/04 13:29:28;;;;;;;;;;;;;;;;;;5096554;28;28667;-96
2022/06/04 13:31:53;;;;;;;;;;;;;;;;;;5089366;28;28248;-96
2022/06/04 13:34:18;;;;;;;;;;;;;;;;;;5091565;28;27705;-96
2022/06/04 13:36:48;;;;;;;;;;;;;;;;;;5088391;28;28269;-91
2022/06/04 13:39:13;;;;;;;;;;;;;;;;;;5077233;28;30578;-96
2022/06/04 13:44:22;;;;;;;;;;;;;;;;;;5081012;28;27870;-96
2022/06/04 13:46:55;;;;;;;;;;;;;;;;;;5080455;28;28543;-95
2022/06/04 13:49:22;;;;;;;;;;;;;;;;;;5096284;28;28499;-94
2022/06/04 13:51:47;;;;;;;;;;;;;;;;;;5096311;28;27784;-95
2022/06/04 13:54:14;;;;;;;;;;;;;;;;;;5096906;28;28404;-95
2022/06/04 13:56:41;;;;;;;;;;;;;;;;;;5078608;28;28466;-94
2022/06/04 13:59:06;;;;;;;;;;;;;;;;;;5077703;28;28486;-95
2022/06/04 14:01:31;;;;;;;;;;;;;;;;;;5077556;28;28411;-90
2022/06/04 14:06:40;;;;;;;;;;;;;;;;;;5095973;28;28463;-95
2022/06/04 14:09:05;;;;;;;;;;;;;;;;;;5095969;28;28422;-94
2022/06/04 14:11:30;;;;;;;;;;;;;;;;;;5096282;28;28319;-94
2022/06/04 14:13:55;;;;;;;;;;;;;;;;;;5097272;28;28434;-96
2022/06/04 14:16:20;;;;;;;;;;;;;;;;;;5096877;28;28449;-96
2022/06/04 14:18:48;;;;;;;;;;;;;;;;;;5077601;28;29894;-94
2022/06/04 14:21:13;;;;;;;;;;;;;;;;;;5078253;28;28396;-94
2022/06/04 14:23:38;;;;;;;;;;;;;;;;;;5096953;28;28250;-96
2022/06/04 14:26:05;;;;;;;;;;;;;;;;;;5097924;28;27713;-95
2022/06/04 14:28:31;;;;;;;;;;;;;;;;;;5077717;28;30065;-88
2022/06/04 14:30:56;;;;;;;;;;;;;;;;;;5098345;28;28299;-93
2022/06/04 14:33:21;;;;;;;;;;;;;;;;;;5095507;28;28375;-86
2022/06/04 14:35:46;;;;;;;;;;;;;;;;;;5095795;28;28221;-96
2022/06/04 14:38:11;;;;;;;;;;;;;;;;;;5095821;28;28448;-95
2022/06/04 14:40:36;;;;;;;;;;;;;;;;;;5095684;28;28361;-96
2022/06/04 14:43:01;;;;;;;;;;;;;;;;;;5095855;28;28337;-96
2022/06/04 14:45:26;;;;;;;;;;;;;;;;;;5077662;28;28413;-94
2022/06/04 14:47:52;;;;;;;;;;;;;;;;;;5079495;28;28747;-94
2022/06/04 14:50:17;;;;;;;;;;;;;;;;;;5099412;28;28442;-95
2022/06/04 14:52:43;;;;;;;;;;;;;;;;;;5080956;28;28454;-94
2022/06/04 14:55:08;;;;;;;;;;;;;;;;;;5081156;28;28442;-94
2022/06/04 14:57:33;;;;;;;;;;;;;;;;;;5080644;28;28653;-94
2022/06/04 14:59:58;;;;;;;;;;;;;;;;;;5080031;28;28615;-95
2022/06/04 15:02:24;;;;;;;;;;;;;;;;;;5098964;28;28299;-94
2022/06/04 15:07:20;;;;;;;;;;;;;;;;;;5098801;28;29191;-95
2022/06/04 15:09:45;;;;;;;;;;;;;;;;;;5099208;28;28307;-94
2022/06/04 15:12:10;;;;;;;;;;;;;;;;;;5080582;28;28498;-94
2022/06/04 15:14:35;;;;;;;;;;;;;;;;;;5080635;28;28328;-95
2022/06/04 15:17:00;;;;;;;;;;;;;;;;;;5080180;28;33687;-94
2022/06/04 15:19:25;;;;;;;;;;;;;;;;;;5080226;28;28303;-95
2022/06/04 15:21:51;;;;;;;;;;;;;;;;;;5080433;28;28398;-95
2022/06/04 15:24:16;;;;;;;;;;;;;;;;;;5080271;28;28556;-95
2022/06/04 15:26:41;;;;;;;;;;;;;;;;;;5080358;28;30105;-95
2022/06/04 15:34:34;;;;;;;;;;;;;;;;;;5091674;28;28374;-92
2022/06/04 15:36:59;;;;;;;;;;;;;;;;;;5097752;28;28312;-95
2022/06/04 15:39:24;;;;;;;;;;;;;;;;;;5098406;28;28424;-95
2022/06/04 15:41:50;;;;;;;;;;;;;;;;;;5079968;28;28269;-93
2022/06/04 15:44:15;;;;;;;;;;;;;;;;;;5079872;28;28501;-92
2022/06/04 15:46:41;;;;;;;;;;;;;;;;;;5097836;28;28497;-94
2022/06/04 15:49:06;;;;;;;;;;;;;;;;;;5090558;28;28575;-94
2022/06/04 15:57:02;;;;;;;;;;;;;;;;;;5096648;28;28268;-92
2022/06/04 15:59:27;;;;;;;;;;;;;;;;;;5069143;28;28599;-92
2022/06/04 16:01:53;;;;;;;;;;;;;;;;;;5079111;28;28359;-94
2022/06/04 16:04:18;;;;;;;;;;;;;;;;;;5079345;28;28443;-94
2022/06/04 16:06:43;;;;;;;;;;;;;;;;;;5079129;28;29903;-92
2022/06/04 16:09:08;;;;;;;;;;;;;;;;;;5089417;28;28410;-93
2022/06/04 16:11:33;;;;;;;;;;;;;;;;;;5086112;28;28576;-95
2022/06/04 16:13:58;;;;;;;;;;;;;;;;;;5072790;28;27970;-91
2022/06/04 16:16:24;;;;;;;;;;;;;;;;;;5075573;28;29592;-88
2022/06/04 16:18:49;;;;;;;;;;;;;;;;;;5092983;28;28363;-86
2022/06/04 16:21:14;;;;;;;;;;;;;;;;;;5088836;28;28812;-86
2022/06/04 16:23:40;;;;;;;;;;;;;;;;;;5097557;28;28378;-88
2022/06/04 16:26:05;;;;;;;;;;;;;;;;;;5084793;28;29552;-87
2022/06/04 16:28:30;;;;;;;;;;;;;;;;;;5077093;28;28415;-88
2022/06/04 16:30:55;;;;;;;;;;;;;;;;;;5077427;28;28393;-88
2022/06/04 16:33:20;;;;;;;;;;;;;;;;;;5091963;22;28312;-92
2022/06/04 16:35:45;;;;;;;;;;;;;;;;;;5058941;28;28683;-94
2022/06/04 16:38:19;;;;;;;;;;;;;;;;;;5073913;28;28564;-92
2022/06/04 16:43:28;;;;;;;;;;;;;;;;;;5056901;28;28411;-91
2022/06/04 16:45:53;;;;;;;;;;;;;;;;;;5056803;28;28310;-93
2022/06/04 16:48:19;;;;;;;;;;;;;;;;;;5069622;28;28429;-93
2022/06/04 16:50:45;;;;;;;;;;;;;;;;;;5056257;28;28438;-93
2022/06/04 16:53:10;;;;;;;;;;;;;;;;;;5038448;28;28509;-92
2022/06/04 16:55:36;;;;;;;;;;;;;;;;;;5056373;28;29097;-93
2022/06/04 16:58:01;;;;;;;;;;;;;;;;;;5065192;28;28348;-92
2022/06/04 17:00:27;;;;;;;;;;;;;;;;;;5057484;28;28400;-92
2022/06/04 17:02:52;;;;;;;;;;;;;;;;;;5048910;28;28546;-91
2022/06/04 17:05:17;;;;;;;;;;;;;;;;;;5045008;28;30568;-86
2022/06/04 17:07:42;;;;;;;;;;;;;;;;;;5057735;28;28500;-85
2022/06/04 17:10:10;;;;;;;;;;;;;;;;;;5069399;28;28470;-93
2022/06/04 17:12:35;;;;;;;;;;;;;;;;;;5058577;28;28400;-93
2022/06/04 17:15:00;;;;;;;;;;;;;;;;;;5060072;28;28536;-94
2022/06/04 17:20:00;;;;;;;;;;;;;;;;;;5073491;22;28514;-85
2022/06/04 17:22:26;;;;;;;;;;;;;;;;;;5056102;28;28513;-85
2022/06/04 17:24:51;;;;;;;;;;;;;;;;;;5061658;28;28972;-87
2022/06/04 17:27:18;;;;;;;;;;;;;;;;;;5074000;28;28391;-84
2022/06/04 17:29:44;;;;;;;;;;;;;;;;;;5075646;28;28586;-86
2022/06/04 17:32:09;;;;;;;;;;;;;;;;;;5069028;28;28434;-84
2022/06/04 17:34:35;;;;;;;;;;;;;;;;;;5068025;28;28607;-86
2022/06/04 17:37:00;;;;;;;;;;;;;;;;;;5058339;28;28532;-88
2022/06/04 17:39:25;;;;;;;;;;;;;;;;;;5055477;28;28516;-85
2022/06/04 17:41:50;;;;;;;;;;;;;;;;;;5066592;28;28423;-87
2022/06/04 17:44:15;;;;;;;;;;;;;;;;;;5073099;28;28636;-88
2022/06/04 17:46:40;;;;;;;;;;;;;;;;;;5067662;28;28807;-85
2022/06/04 17:49:05;;;;;;;;;;;;;;;;;;5090989;28;28466;-87
2022/06/04 17:51:30;;;;;;;;;;;;;;;;;;5096030;27;28579;-94
2022/06/04 17:53:56;;;;;;;;;;;;;;;;;;5055994;28;28521;-91
2022/06/04 17:56:21;;;;;;;;;;;;;;;;;;5052439;28;28496;-89
2022/06/04 17:58:46;;;;;;;;;;;;;;;;;;5075161;28;28450;-88
2022/06/04 18:01:13;;;;;;;;;;;;;;;;;;5072560;28;27942;-95
2022/06/04 18:03:38;;;;;;;;;;;;;;;;;;5071047;28;28469;-94
2022/06/04 18:06:05;;;;;;;;;;;;;;;;;;5054762;28;28531;-87
2022/06/04 18:08:30;;;;;;;;;;;;;;;;;;5061251;28;28316;-87
2022/06/04 18:10:55;;;;;;;;;;;;;;;;;;5072053;28;28590;-85